Time;durP1;ratioP1;P1;durP2;ratioP2;P2;SDS_P1;SDS_P2;PMS_P1;PMS_P2;Temp;Humidity;BMP_temperature;BMP_pressure;BME280_temperature;BME280_humidity;BME280_pressure;Samples;Min_cycle;Max_cycle;Signal;HPM_P1;HPM_P2
2021/09/24 00:01:39;;;;;;;7.20;5.20;;;;;;;16.40;59.51;96915.66;5099755;28;20440;-67
2021/09/24 00:04:06;;;;;;;6.33;5.23;;;;;;;16.28;59.90;96915.38;5099680;28;20187;-66
2021/09/24 00:06:32;;;;;;;5.77;5.13;;;;;;;16.21;60.02;96919.84;5097760;28;20792;-67
2021/09/24 00:08:57;;;;;;;6.83;4.73;;;;;;;16.02;61.18;96916.88;5098175;28;20193;-68
2021/09/24 00:11:23;;;;;;;6.03;5.43;;;;;;;15.91;61.65;96909.47;5096676;28;20201;-67
2021/09/24 00:13:48;;;;;;;10.70;5.40;;;;;;;16.16;60.90;96903.72;5096707;28;20177;-66
2021/09/24 00:16:14;;;;;;;5.70;4.90;;;;;;;16.20;60.36;96907.63;5096800;28;20178;-68
2021/09/24 00:18:39;;;;;;;6.53;5.20;;;;;;;16.01;61.12;96909.13;5096188;28;20192;-66
2021/09/24 00:21:05;;;;;;;13.20;4.90;;;;;;;15.94;61.37;96898.53;5096445;28;20196;-66
2021/09/24 00:23:31;;;;;;;7.53;5.90;;;;;;;16.07;60.89;96901.25;5094692;28;20185;-66
2021/09/24 00:25:56;;;;;;;6.00;5.40;;;;;;;16.20;60.62;96897.03;5096150;28;20181;-66
2021/09/24 00:28:22;;;;;;;9.73;5.50;;;;;;;15.86;62.00;96898.69;5096479;28;20291;-66
2021/09/24 00:30:48;;;;;;;7.73;5.40;;;;;;;16.05;60.87;96892.69;5096945;28;20621;-65
2021/09/24 00:33:14;;;;;;;8.07;5.37;;;;;;;16.02;61.37;96890.44;5088451;28;20181;-65
2021/09/24 00:35:39;;;;;;;5.93;5.23;;;;;;;16.07;61.07;96892.50;5092948;28;20276;-66
2021/09/24 00:38:05;;;;;;;5.53;5.00;;;;;;;16.03;60.88;96902.63;5095109;28;20212;-66
2021/09/24 00:40:34;;;;;;;7.13;5.53;;;;;;;15.86;61.41;96886.28;5095426;28;20217;-66
2021/09/24 00:43:02;;;;;;;6.93;5.57;;;;;;;15.78;61.96;96892.50;5094187;28;20300;-66
2021/09/24 00:45:27;;;;;;;8.90;5.70;;;;;;;15.74;62.11;96883.34;5104886;28;20416;-67
2021/09/24 00:47:53;;;;;;;6.53;5.87;;;;;;;15.79;61.85;96885.41;5095062;28;20429;-67
2021/09/24 00:50:18;;;;;;;5.70;5.03;;;;;;;15.77;61.97;96885.56;5096247;28;20201;-65
2021/09/24 00:52:44;;;;;;;10.37;5.53;;;;;;;15.93;61.08;96895.09;5095634;28;20198;-66
2021/09/24 00:55:10;;;;;;;6.03;5.27;;;;;;;15.87;61.47;96892.41;5095698;28;20208;-66
2021/09/24 00:57:36;;;;;;;8.53;5.97;;;;;;;15.88;61.35;96892.19;5095410;28;20186;-65
2021/09/24 01:00:03;;;;;;;6.03;5.43;;;;;;;15.91;61.29;96898.91;5095600;28;20177;-65
2021/09/24 01:02:29;;;;;;;7.63;6.07;;;;;;;15.57;62.37;96897.84;5095757;28;20255;-66
2021/09/24 01:04:55;;;;;;;7.97;5.40;;;;;;;15.70;61.90;96897.09;5091150;28;20423;-65
2021/09/24 01:07:21;;;;;;;11.20;7.40;;;;;;;15.80;61.30;96893.13;5094838;28;20502;-65
2021/09/24 01:09:46;;;;;;;16.73;7.77;;;;;;;15.80;61.10;96903.69;5095849;28;20475;-65
2021/09/24 01:12:12;;;;;;;8.40;5.70;;;;;;;15.74;61.33;96903.66;5095203;28;20213;-68
2021/09/24 01:14:38;;;;;;;6.73;5.30;;;;;;;15.58;62.18;96912.69;5095576;28;20181;-69
2021/09/24 01:17:04;;;;;;;7.43;5.80;;;;;;;15.69;61.28;96909.50;5094854;28;20428;-66
2021/09/24 01:19:30;;;;;;;6.87;5.30;;;;;;;15.67;61.02;96911.53;5095134;28;20528;-68
2021/09/24 01:21:55;;;;;;;6.50;5.47;;;;;;;15.60;61.16;96913.31;5094810;28;20202;-66
2021/09/24 01:24:21;;;;;;;7.40;5.77;;;;;;;15.56;61.15;96917.31;5095144;28;20234;-68
2021/09/24 01:26:49;;;;;;;8.27;6.90;;;;;;;15.48;61.13;96913.00;5094399;28;20201;-67
2021/09/24 01:29:15;;;;;;;9.03;6.90;;;;;;;15.43;61.16;96913.56;5094881;28;21007;-66
2021/09/24 01:31:41;;;;;;;7.00;5.93;;;;;;;15.36;61.30;96908.22;5095057;28;20439;-66
2021/09/24 01:34:07;;;;;;;7.17;6.43;;;;;;;15.28;61.39;96904.91;5092045;28;20224;-67
2021/09/24 01:36:32;;;;;;;7.73;6.60;;;;;;;15.20;61.62;96903.22;5094709;28;20201;-66
2021/09/24 01:39:09;;;;;;;8.67;6.50;;;;;;;15.13;62.10;96918.97;5094247;28;20541;-67
2021/09/24 01:41:39;;;;;;;6.40;5.80;;;;;;;15.12;62.40;96905.97;5094859;28;20197;-67
2021/09/24 01:44:05;;;;;;;6.90;5.83;;;;;;;15.08;62.45;96915.28;5095087;28;20424;-66
2021/09/24 01:46:31;;;;;;;7.50;5.97;;;;;;;15.02;62.40;96903.66;5094407;28;20918;-66
2021/09/24 01:48:56;;;;;;;6.57;5.63;;;;;;;14.93;63.69;96904.78;5093269;28;20186;-66
2021/09/24 01:51:22;;;;;;;8.40;5.90;;;;;;;14.99;63.61;96904.03;5094618;28;20208;-67
2021/09/24 01:53:48;;;;;;;7.50;6.60;;;;;;;14.93;63.73;96897.69;5094472;28;20181;-66
2021/09/24 01:56:14;;;;;;;8.10;6.37;;;;;;;14.97;63.51;96892.84;5094462;28;20178;-67
2021/09/24 01:58:39;;;;;;;7.03;6.00;;;;;;;14.95;63.57;96900.94;5094065;28;20426;-66
2021/09/24 02:01:05;;;;;;;6.30;5.70;;;;;;;14.94;63.40;96890.59;5093264;28;20247;-67
2021/09/24 02:03:31;;;;;;;5.80;5.10;;;;;;;14.90;63.32;96903.34;5075907;28;20200;-67
2021/09/24 02:05:56;;;;;;;7.27;5.90;;;;;;;14.86;63.53;96897.63;5091784;28;20185;-66
2021/09/24 02:08:22;;;;;;;6.20;5.60;;;;;;;14.80;63.66;96893.09;5093972;28;20181;-66
2021/09/24 02:10:47;;;;;;;8.33;6.57;;;;;;;14.75;63.78;96895.44;5094627;28;20206;-66
2021/09/24 02:13:13;;;;;;;6.90;5.53;;;;;;;14.73;63.97;96892.22;5093709;28;20181;-67
2021/09/24 02:15:39;;;;;;;5.77;5.23;;;;;;;14.70;63.75;96889.94;5094459;28;20200;-66
2021/09/24 02:18:04;;;;;;;7.53;5.77;;;;;;;14.66;63.96;96894.75;5093288;28;20186;-67
2021/09/24 02:20:30;;;;;;;8.57;6.07;;;;;;;14.64;64.25;96888.00;5090785;28;20299;-66
2021/09/24 02:22:55;;;;;;;9.93;5.70;;;;;;;14.51;64.68;96886.03;5093947;28;20273;-67
2021/09/24 02:25:21;;;;;;;6.90;5.83;;;;;;;14.53;64.59;96884.84;5094153;28;20180;-66
2021/09/24 02:27:47;;;;;;;6.27;5.63;;;;;;;14.49;64.80;96886.19;5093671;28;20267;-67
2021/09/24 02:30:13;;;;;;;7.60;6.50;;;;;;;14.53;64.61;96886.69;5093648;28;20205;-66
2021/09/24 02:32:39;;;;;;;8.03;6.60;;;;;;;14.48;64.72;96883.75;5096609;28;20728;-66
2021/09/24 02:35:05;;;;;;;8.90;6.50;;;;;;;14.45;64.82;96884.97;5091089;28;20420;-67
2021/09/24 02:37:30;;;;;;;9.80;6.50;;;;;;;14.36;64.63;96880.81;5095059;28;20589;-66
2021/09/24 02:39:56;;;;;;;7.07;5.70;;;;;;;14.34;64.70;96883.59;5094349;28;21056;-66
2021/09/24 02:42:22;;;;;;;7.47;5.97;;;;;;;14.32;64.97;96876.88;5091947;28;20220;-66
2021/09/24 02:44:47;;;;;;;7.90;6.00;;;;;;;14.32;64.95;96879.53;5094353;28;20585;-66
2021/09/24 02:47:14;;;;;;;9.23;7.10;;;;;;;14.30;65.40;96866.53;5093236;28;20223;-66
2021/09/24 02:49:41;;;;;;;8.70;6.80;;;;;;;14.33;65.01;96874.06;5093440;28;20201;-66
2021/09/24 02:52:07;;;;;;;6.50;5.90;;;;;;;14.27;65.06;96867.69;5099730;28;20431;-65
2021/09/24 02:54:32;;;;;;;7.07;6.37;;;;;;;14.34;65.50;96882.78;5094108;28;20416;-66
2021/09/24 02:56:58;;;;;;;8.77;7.20;;;;;;;14.30;66.04;96879.72;5093496;28;20188;-66
2021/09/24 02:59:24;;;;;;;8.10;6.50;;;;;;;14.32;66.13;96876.88;5092302;28;20176;-66
2021/09/24 03:01:49;;;;;;;8.00;6.67;;;;;;;14.35;66.29;96874.69;5092581;28;20234;-63
2021/09/24 03:04:15;;;;;;;7.53;6.70;;;;;;;14.45;66.22;96874.41;5092904;28;20173;-66
2021/09/24 03:06:40;;;;;;;13.07;6.43;;;;;;;14.21;67.91;96871.09;5093151;28;20182;-65
2021/09/24 03:09:07;;;;;;;7.80;6.80;;;;;;;14.27;67.67;96872.97;5091853;28;20264;-66
2021/09/24 03:11:32;;;;;;;9.53;6.53;;;;;;;14.48;66.55;96875.84;5092352;28;20588;-65
2021/09/24 03:13:58;;;;;;;12.60;7.13;;;;;;;14.43;66.49;96871.94;5089418;28;20420;-63
2021/09/24 03:16:23;;;;;;;8.30;6.93;;;;;;;13.97;68.43;96873.00;5091750;28;20549;-65
2021/09/24 03:18:49;;;;;;;10.57;7.83;;;;;;;14.17;68.02;96867.19;5091355;28;20178;-64
2021/09/24 03:21:14;;;;;;;9.10;6.57;;;;;;;14.25;67.98;96867.06;5091292;28;20280;-68
2021/09/24 03:23:40;;;;;;;8.63;7.13;;;;;;;14.33;67.30;96868.78;5082688;28;20219;-67
2021/09/24 03:26:05;;;;;;;17.10;8.83;;;;;;;14.41;66.43;96871.34;5089716;28;20174;-65
2021/09/24 03:28:31;;;;;;;22.10;9.40;;;;;;;14.42;66.80;96874.78;5073104;28;20310;-66
2021/09/24 03:30:57;;;;;;;10.70;7.50;;;;;;;14.40;67.40;96867.06;5091299;28;20688;-67
2021/09/24 03:33:22;;;;;;;8.40;6.83;;;;;;;14.35;67.60;96863.34;5091641;28;20184;-65
2021/09/24 03:35:48;;;;;;;9.37;6.83;;;;;;;14.41;66.77;96862.59;5091627;28;20558;-65
2021/09/24 03:38:14;;;;;;;11.27;8.17;;;;;;;14.37;67.02;96863.94;5082716;28;20378;-64
2021/09/24 03:40:39;;;;;;;9.07;7.10;;;;;;;14.39;67.16;96864.59;5091224;28;20865;-66
2021/09/24 03:43:05;;;;;;;8.23;6.90;;;;;;;14.37;67.08;96858.69;5091344;28;20181;-65
2021/09/24 03:45:31;;;;;;;9.03;7.00;;;;;;;14.44;67.06;96856.97;5091312;28;20706;-65
2021/09/24 03:47:56;;;;;;;9.20;7.07;;;;;;;14.23;68.11;96858.56;5090617;28;20549;-66
2021/09/24 03:50:24;;;;;;;10.63;7.40;;;;;;;14.14;68.16;96857.00;5091074;28;20227;-67
2021/09/24 03:52:51;;;;;;;15.47;6.60;;;;;;;14.37;67.23;96856.88;5091039;28;20656;-64
2021/09/24 03:55:17;;;;;;;7.23;6.53;;;;;;;14.49;66.88;96854.56;5082616;28;20545;-65
2021/09/24 03:57:42;;;;;;;9.07;6.70;;;;;;;14.42;66.58;96851.06;5091007;28;20836;-66
2021/09/24 04:00:09;;;;;;;10.40;7.03;;;;;;;14.36;67.21;96855.25;5090748;28;20193;-65
2021/09/24 04:02:34;;;;;;;10.30;7.43;;;;;;;14.05;68.33;96856.28;5091248;28;20256;-65
2021/09/24 04:05:00;;;;;;;9.50;7.13;;;;;;;14.19;67.77;96853.81;5090958;28;20520;-65
2021/09/24 04:07:25;;;;;;;9.27;6.90;;;;;;;14.06;68.44;96859.75;5091049;28;20265;-64
2021/09/24 04:09:51;;;;;;;9.43;6.80;;;;;;;14.09;68.04;96859.38;5090886;28;20201;-65
2021/09/24 04:12:16;;;;;;;11.90;7.17;;;;;;;14.17;67.46;96869.00;5091146;28;20200;-65
2021/09/24 04:14:42;;;;;;;9.60;7.33;;;;;;;13.90;68.76;96864.19;5091483;28;20196;-65
2021/09/24 04:17:08;;;;;;;7.27;6.57;;;;;;;14.19;67.37;96864.34;5088253;28;20193;-65
2021/09/24 04:19:33;;;;;;;11.87;7.77;;;;;;;13.76;68.85;96870.25;5089875;28;20196;-66
2021/09/24 04:21:59;;;;;;;11.53;6.83;;;;;;;14.10;67.89;96866.28;5103526;28;20201;-67
2021/09/24 04:24:24;;;;;;;7.47;6.67;;;;;;;14.22;66.93;96856.91;5112629;28;20206;-65
2021/09/24 04:26:50;;;;;;;7.40;6.70;;;;;;;14.28;66.40;96863.25;5106748;28;20181;-65
2021/09/24 04:29:16;;;;;;;9.23;6.63;;;;;;;14.25;66.16;96868.91;5094288;28;20573;-67
2021/09/24 04:31:41;;;;;;;10.07;7.00;;;;;;;14.20;65.84;96866.81;5095805;28;20405;-65
2021/09/24 04:34:09;;;;;;;8.40;6.50;;;;;;;14.16;66.17;96870.00;5097158;28;20177;-66
2021/09/24 04:36:35;;;;;;;8.60;7.03;;;;;;;14.13;66.21;96881.72;5097430;28;20185;-67
2021/09/24 04:39:02;;;;;;;11.97;7.87;;;;;;;14.11;66.19;96874.00;5121974;28;20422;-68
2021/09/24 04:41:28;;;;;;;7.73;6.80;;;;;;;14.06;66.27;96875.53;5113973;28;20474;-69
2021/09/24 04:43:54;;;;;;;9.30;7.77;;;;;;;14.02;66.41;96874.25;5113471;28;20427;-67
2021/09/24 04:46:19;;;;;;;8.83;7.00;;;;;;;14.03;66.67;96870.63;5096321;28;20419;-66
2021/09/24 04:48:45;;;;;;;10.50;8.03;;;;;;;14.02;66.37;96871.63;5094047;28;20185;-66
2021/09/24 04:51:11;;;;;;;10.30;7.57;;;;;;;13.97;66.62;96867.75;5093533;28;20558;-66
2021/09/24 04:53:36;;;;;;;12.20;7.80;;;;;;;14.01;67.02;96877.91;5094161;28;20201;-67
2021/09/24 04:56:02;;;;;;;9.30;7.30;;;;;;;14.05;66.90;96868.63;5086094;28;20194;-65
2021/09/24 04:58:28;;;;;;;9.10;6.90;;;;;;;14.06;66.95;96875.53;5093545;28;20618;-66
2021/09/24 05:00:53;;;;;;;11.50;8.10;;;;;;;14.05;66.80;96868.63;5087478;28;20218;-66
2021/09/24 05:03:19;;;;;;;9.50;7.63;;;;;;;14.08;66.76;96878.81;5082171;28;20174;-63
2021/09/24 05:05:45;;;;;;;12.27;7.00;;;;;;;14.03;66.70;96875.91;5087417;28;20192;-64
2021/09/24 05:08:11;;;;;;;11.23;7.53;;;;;;;14.04;66.95;96877.53;5092541;28;20181;-66
2021/09/24 05:10:37;;;;;;;28.93;8.07;;;;;;;14.04;67.46;96877.53;5093330;28;20254;-66
2021/09/24 05:13:03;;;;;;;21.97;7.87;;;;;;;14.06;67.82;96872.91;5089116;28;20416;-65
2021/09/24 05:15:29;;;;;;;10.37;8.30;;;;;;;14.11;68.08;96868.72;5081166;28;20439;-64
2021/09/24 05:17:54;;;;;;;16.17;8.97;;;;;;;14.11;68.10;96874.00;5080661;28;20310;-66
2021/09/24 05:20:20;;;;;;;13.67;8.23;;;;;;;14.24;67.47;96878.59;5088597;28;20205;-66
2021/09/24 05:22:46;;;;;;;10.30;7.90;;;;;;;14.23;66.98;96884.91;5093429;28;20626;-64
2021/09/24 05:25:12;;;;;;;10.10;8.37;;;;;;;14.15;67.71;96874.44;5085984;28;20225;-65
2021/09/24 05:27:38;;;;;;;14.10;7.67;;;;;;;14.06;67.97;96878.97;5084232;28;20296;-65
2021/09/24 05:30:04;;;;;;;12.47;8.03;;;;;;;14.08;67.76;96876.19;5086170;28;20535;-64
2021/09/24 05:32:30;;;;;;;11.73;8.33;;;;;;;14.12;67.77;96874.81;5084184;28;20229;-65
2021/09/24 05:34:56;;;;;;;13.10;8.10;;;;;;;14.16;67.18;96878.72;5082422;28;20456;-65
2021/09/24 05:37:21;;;;;;;13.87;7.90;;;;;;;14.23;67.07;96877.00;5080702;28;20236;-66
2021/09/24 05:39:47;;;;;;;11.27;8.57;;;;;;;14.29;66.75;96875.44;5078477;28;20181;-65
2021/09/24 05:42:14;;;;;;;11.30;7.50;;;;;;;14.38;66.80;96881.41;5084039;28;20209;-64
2021/09/24 05:44:40;;;;;;;11.10;8.50;;;;;;;14.48;66.40;96878.50;5085421;28;20420;-64
2021/09/24 05:47:05;;;;;;;10.97;8.00;;;;;;;14.62;66.25;96874.19;5088891;28;20417;-66
2021/09/24 05:49:31;;;;;;;12.23;8.07;;;;;;;14.71;65.85;96873.09;5085292;28;20458;-63
2021/09/24 05:51:58;;;;;;;10.53;7.60;;;;;;;14.70;66.75;96882.03;5084980;28;20194;-65
2021/09/24 05:54:24;;;;;;;14.73;8.00;;;;;;;14.94;66.17;96869.47;5084291;28;20255;-65
2021/09/24 05:56:51;;;;;;;12.33;8.37;;;;;;;14.85;65.98;96874.88;5085230;28;20417;-66
2021/09/24 05:59:17;;;;;;;8.97;7.80;;;;;;;15.00;66.22;96873.97;5086664;28;20199;-65
2021/09/24 06:01:42;;;;;;;8.97;7.57;;;;;;;15.11;65.40;96868.22;5083227;28;20444;-65
2021/09/24 06:04:08;;;;;;;7.73;6.90;;;;;;;15.01;65.88;96879.09;5083500;28;20276;-63
2021/09/24 06:06:34;;;;;;;8.50;7.10;;;;;;;15.09;65.95;96883.44;5084169;28;20193;-64
2021/09/24 06:09:02;;;;;;;9.10;7.33;;;;;;;15.25;65.58;96886.81;5085843;28;20185;-64
2021/09/24 06:11:28;;;;;;;8.90;7.30;;;;;;;15.36;65.12;96881.03;5084581;28;20248;-64
2021/09/24 06:13:54;;;;;;;12.87;7.37;;;;;;;15.12;65.54;96883.03;5085507;28;20934;-64
2021/09/24 06:16:19;;;;;;;12.20;7.20;;;;;;;15.25;65.30;96885.00;5086397;28;20789;-64
2021/09/24 06:18:45;;;;;;;9.00;7.10;;;;;;;15.60;64.39;96877.13;5083661;28;20277;-64
2021/09/24 06:21:10;;;;;;;9.50;7.60;;;;;;;15.74;63.62;96883.34;5085102;28;20675;-64
2021/09/24 06:23:39;;;;;;;10.10;7.67;;;;;;;15.79;63.64;96882.75;5085333;28;20181;-63
2021/09/24 06:26:05;;;;;;;8.70;6.83;;;;;;;15.76;63.47;96883.94;5090480;28;20591;-63
2021/09/24 06:28:31;;;;;;;9.37;7.00;;;;;;;15.91;62.67;96888.34;5089007;28;20576;-64
2021/09/24 06:30:59;;;;;;;10.13;6.50;;;;;;;15.99;62.68;96884.72;5086462;28;20457;-63
2021/09/24 06:33:25;;;;;;;8.63;7.30;;;;;;;16.38;62.00;96889.38;5084488;28;20197;-64
2021/09/24 06:35:51;;;;;;;11.47;6.80;;;;;;;16.51;61.13;96890.44;5083758;28;20428;-65
2021/09/24 06:38:17;;;;;;;9.77;6.20;;;;;;;16.74;60.43;96893.63;5088661;28;20209;-66
2021/09/24 06:40:43;;;;;;;7.93;6.10;;;;;;;16.69;60.56;96892.56;5086591;28;20937;-66
2021/09/24 06:43:09;;;;;;;9.87;7.43;;;;;;;16.87;60.20;96897.31;5094186;28;20186;-64
2021/09/24 06:45:36;;;;;;;11.30;9.40;;;;;;;17.26;58.74;96893.13;5095794;28;20219;-64
2021/09/24 06:48:02;;;;;;;8.77;6.63;;;;;;;17.48;58.32;96892.94;5102269;28;20436;-65
2021/09/24 06:50:28;;;;;;;7.60;6.90;;;;;;;17.95;57.10;96893.69;5105065;28;20809;-65
2021/09/24 06:52:53;;;;;;;8.60;6.97;;;;;;;17.58;57.90;96903.91;5066941;28;20508;-66
2021/09/24 06:55:22;;;;;;;8.90;6.53;;;;;;;17.15;58.89;96909.59;5106928;28;20303;-67
2021/09/24 06:57:48;;;;;;;14.93;6.70;;;;;;;17.48;58.41;96904.31;5091249;28;20218;-65
2021/09/24 07:00:14;;;;;;;6.77;6.17;;;;;;;17.48;58.28;96903.53;5085160;28;20411;-64
2021/09/24 07:02:40;;;;;;;9.33;7.17;;;;;;;17.11;59.10;96913.69;5092485;28;20454;-65
2021/09/24 07:05:06;;;;;;;9.10;6.57;;;;;;;17.67;57.92;96907.19;5084541;28;20412;-64
2021/09/24 07:07:32;;;;;;;11.33;7.00;;;;;;;17.68;58.08;96916.78;5091662;28;20209;-63
2021/09/24 07:09:58;;;;;;;8.90;6.80;;;;;;;17.43;59.18;96908.59;5092253;28;20470;-64
2021/09/24 07:12:24;;;;;;;8.80;7.80;;;;;;;17.79;58.19;96910.00;5092881;28;20197;-65
2021/09/24 07:14:50;;;;;;;12.60;6.60;;;;;;;18.07;57.30;96904.50;5085953;28;20451;-67
2021/09/24 07:17:15;;;;;;;7.73;6.90;;;;;;;18.18;56.98;96899.59;5085268;28;20416;-65
2021/09/24 07:19:41;;;;;;;8.13;6.70;;;;;;;17.98;57.85;96910.25;5085463;28;20189;-65
2021/09/24 07:22:08;;;;;;;7.47;6.47;;;;;;;18.24;56.55;96907.53;5090945;28;20285;-64
2021/09/24 07:24:34;;;;;;;7.20;6.50;;;;;;;17.70;58.62;96914.72;5088030;28;20424;-65
2021/09/24 07:27:00;;;;;;;9.40;6.20;;;;;;;18.22;56.89;96904.25;5088938;28;20506;-66
2021/09/24 07:29:25;;;;;;;9.20;7.03;;;;;;;18.64;55.70;96901.25;5090526;28;20215;-66
2021/09/24 07:31:51;;;;;;;7.90;6.33;;;;;;;18.85;55.25;96892.16;5083197;28;20205;-65
2021/09/24 07:34:17;;;;;;;8.47;6.97;;;;;;;18.78;55.37;96901.19;5082049;28;20182;-67
2021/09/24 07:36:42;;;;;;;8.57;6.23;;;;;;;19.05;54.67;96901.88;5090076;28;20193;-63
2021/09/24 07:39:08;;;;;;;7.57;6.30;;;;;;;18.72;55.51;96906.31;5091115;28;20261;-64
2021/09/24 07:41:34;;;;;;;7.00;6.10;;;;;;;18.50;55.81;96911.13;5091884;28;20201;-66
2021/09/24 07:44:00;;;;;;;7.33;6.20;;;;;;;19.16;54.19;96913.66;5091186;28;20193;-66
2021/09/24 07:46:26;;;;;;;8.10;6.83;;;;;;;19.46;53.86;96913.84;5091292;28;20226;-67
2021/09/24 07:48:51;;;;;;;9.67;6.50;;;;;;;19.68;53.23;96910.00;5090740;28;20856;-64
2021/09/24 07:51:17;;;;;;;15.43;7.10;;;;;;;19.43;53.48;96908.16;5093307;28;20202;-64
2021/09/24 07:53:43;;;;;;;7.03;5.70;;;;;;;19.74;52.66;96915.28;5095900;28;20181;-66
2021/09/24 07:56:10;;;;;;;10.33;6.87;;;;;;;19.82;52.12;96916.00;5095167;28;20717;-66
2021/09/24 07:58:38;;;;;;;10.13;6.87;;;;;;;19.68;52.59;96916.13;5096645;28;20416;-67
2021/09/24 08:01:05;;;;;;;11.63;6.70;;;;;;;19.44;53.18;96918.56;5101919;28;20500;-66
2021/09/24 08:03:31;;;;;;;6.93;6.33;;;;;;;18.68;55.78;96920.22;5088318;28;20952;-66
2021/09/24 08:05:57;;;;;;;10.20;6.60;;;;;;;19.40;54.00;96925.38;5095318;28;20435;-66
2021/09/24 08:08:23;;;;;;;10.90;6.30;;;;;;;19.99;52.41;96927.75;5080839;28;20193;-66
2021/09/24 08:10:48;;;;;;;8.03;7.00;;;;;;;20.04;52.07;96925.22;5101212;28;20483;-66
2021/09/24 08:13:14;;;;;;;7.53;5.37;;;;;;;20.25;51.42;96925.84;5093820;28;20213;-66
2021/09/24 08:15:43;;;;;;;7.20;6.60;;;;;;;20.55;50.16;96927.75;5093898;28;20188;-66
2021/09/24 08:18:12;;;;;;;6.80;5.90;;;;;;;20.40;50.34;96928.97;5094505;28;20194;-66
2021/09/24 08:20:42;;;;;;;8.03;5.93;;;;;;;20.63;50.27;96926.66;5094400;28;20551;-66
2021/09/24 08:23:08;;;;;;;7.30;5.70;;;;;;;20.58;50.73;96924.66;5094158;28;20621;-65
2021/09/24 08:25:34;;;;;;;6.20;5.60;;;;;;;20.35;51.48;96939.47;5067041;28;20920;-67
2021/09/24 08:27:59;;;;;;;7.90;5.73;;;;;;;21.07;49.14;96931.84;5084122;28;20431;-65
2021/09/24 08:30:27;;;;;;;8.70;5.33;;;;;;;20.48;50.13;96930.50;5094381;28;20254;-66
2021/09/24 08:32:53;;;;;;;7.60;6.10;;;;;;;20.85;48.77;96925.19;5093202;28;20192;-67
2021/09/24 08:35:21;;;;;;;8.37;6.60;;;;;;;21.35;47.88;96931.25;5103233;28;20434;-65
2021/09/24 08:37:50;;;;;;;6.10;5.60;;;;;;;20.52;49.98;96933.56;5093034;28;20456;-66
2021/09/24 08:40:17;;;;;;;6.40;5.80;;;;;;;20.34;50.20;96923.72;5086350;28;20811;-67
2021/09/24 08:42:44;;;;;;;8.03;5.67;;;;;;;20.64;49.42;96929.09;5094685;28;20522;-67
2021/09/24 08:45:26;;;;;;;7.97;6.40;;;;;;;20.32;49.78;96929.25;5093635;28;20519;-67
2021/09/24 08:47:57;;;;;;;15.50;6.10;;;;;;;20.68;49.30;96919.63;5093498;28;20446;-65
2021/09/24 08:50:25;;;;;;;11.17;7.57;;;;;;;21.09;48.36;96921.78;5092651;28;20550;-66
2021/09/24 08:52:50;;;;;;;6.93;6.23;;;;;;;21.19;47.87;96919.38;5094374;28;20423;-67
2021/09/24 08:55:17;;;;;;;8.20;5.50;;;;;;;21.27;47.59;96929.72;5093928;28;20796;-67
2021/09/24 08:57:43;;;;;;;6.43;5.83;;;;;;;21.11;48.13;96928.50;5075148;28;20264;-66
2021/09/24 09:00:10;;;;;;;6.43;5.60;;;;;;;21.49;47.09;96932.66;5075620;28;21115;-65
2021/09/24 09:03:08;;;;;;;7.93;5.97;;;;;;;21.78;46.50;96927.50;5095469;28;20442;-66
2021/09/24 09:05:37;;;;;;;6.80;5.77;;;;;;;21.81;46.03;96930.75;5089174;28;20422;-65
2021/09/24 09:08:08;;;;;;;9.53;5.57;;;;;;;21.66;46.13;96931.22;5094199;28;20420;-65
2021/09/24 09:11:07;;;;;;;10.77;5.30;;;;;;;20.84;47.76;96928.06;5091368;28;20457;-65
2021/09/24 09:13:39;;;;;;;13.07;5.47;;;;;;;21.41;47.10;96925.00;5088258;28;20923;-65
2021/09/24 09:16:14;;;;;;;5.40;4.90;;;;;;;21.00;47.33;96927.44;5102048;28;20523;-65
2021/09/24 09:18:43;;;;;;;6.10;4.77;;;;;;;21.92;45.60;96922.78;5099113;28;20447;-65
2021/09/24 09:21:11;;;;;;;7.77;4.87;;;;;;;21.32;47.34;96921.84;5091981;28;20824;-67
2021/09/24 09:23:40;;;;;;;8.80;5.53;;;;;;;21.44;46.69;96927.22;5087200;28;20891;-65
2021/09/24 09:26:08;;;;;;;7.23;5.07;;;;;;;22.27;45.14;96923.78;5095519;28;20822;-65
2021/09/24 09:28:35;;;;;;;8.17;5.23;;;;;;;21.83;46.42;96931.34;5092765;28;20416;-66
2021/09/24 09:31:14;;;;;;;7.53;5.40;;;;;;;21.76;46.33;96928.78;5104347;28;20503;-67
2021/09/24 09:33:46;;;;;;;6.10;5.50;;;;;;;22.03;45.77;96923.78;5104958;28;20424;-65
2021/09/24 09:36:22;;;;;;;7.37;4.93;;;;;;;22.63;44.22;96926.41;5088797;28;20495;-65
2021/09/24 09:38:47;;;;;;;5.17;4.60;;;;;;;22.14;45.78;96930.19;5093824;28;20431;-68
2021/09/24 09:41:15;;;;;;;6.73;5.00;;;;;;;21.87;46.09;96929.81;5093051;28;20432;-67
2021/09/24 09:43:46;;;;;;;5.40;3.90;;;;;;;22.24;45.14;96933.06;5093181;28;20193;-66
2021/09/24 09:46:15;;;;;;;9.73;5.17;;;;;;;22.67;44.01;96928.38;5091724;28;20424;-65
2021/09/24 09:48:41;;;;;;;5.43;4.20;;;;;;;22.76;43.72;96931.47;5092001;28;20519;-68
2021/09/24 09:51:07;;;;;;;4.73;3.93;;;;;;;22.08;45.28;96936.44;5092625;28;20828;-67
2021/09/24 09:53:33;;;;;;;4.50;4.10;;;;;;;22.31;45.04;96932.13;5093389;28;20424;-68
2021/09/24 09:56:02;;;;;;;6.60;3.83;;;;;;;21.73;46.82;96922.06;5093131;28;20194;-65
2021/09/24 09:58:31;;;;;;;4.47;4.07;;;;;;;22.51;44.79;96919.25;5091653;28;20504;-66
2021/09/24 10:01:09;;;;;;;4.47;3.70;;;;;;;23.14;43.03;96916.69;5093326;28;20803;-67
2021/09/24 10:03:40;;;;;;;5.57;4.07;;;;;;;23.49;42.24;96920.25;5088050;28;20629;-66
2021/09/24 10:06:19;;;;;;;4.47;4.10;;;;;;;23.31;42.80;96911.41;5090628;28;20435;-67
2021/09/24 10:08:45;;;;;;;8.40;4.00;;;;;;;23.67;41.84;96915.69;5073522;28;20476;-66
2021/09/24 10:11:15;;;;;;;6.00;3.97;;;;;;;23.63;41.80;96910.03;5084122;28;20564;-67
2021/09/24 10:13:52;;;;;;;4.07;3.20;;;;;;;;;;5094087;28;20231;-66
2021/09/24 10:16:20;;;;;;;6.80;4.03;;;;;;;22.54;43.71;96909.94;5093940;28;20431;-66
2021/09/24 10:18:46;;;;;;;4.53;2.93;;;;;;;22.95;42.62;96907.25;5093107;28;20434;-65
2021/09/24 10:21:11;;;;;;;7.80;3.43;;;;;;;22.86;42.99;96912.97;5090420;28;20587;-66
2021/09/24 10:23:37;;;;;;;7.87;3.60;;;;;;;22.14;44.83;96914.19;5089183;28;20447;-67
2021/09/24 10:26:14;;;;;;;4.93;3.60;;;;;;;22.47;43.60;96902.06;5091972;28;20552;-66
2021/09/24 10:28:41;;;;;;;4.20;3.80;;;;;;;22.16;44.75;96917.44;5090906;28;20594;-68
2021/09/24 10:31:14;;;;;;;4.67;4.27;;;;;;;22.05;45.08;96899.56;5090818;28;20551;-66
2021/09/24 10:34:01;;;;;;;4.80;3.80;;;;;;;22.66;43.52;96902.72;5079403;28;20500;-67
2021/09/24 10:36:46;;;;;;;3.37;3.07;;;;;;;22.72;43.08;96897.47;5085852;28;20802;-67
2021/09/24 10:39:29;;;;;;;4.80;4.03;;;;;;;22.81;43.23;96902.19;5093752;28;20426;-65
2021/09/24 10:42:26;;;;;;;3.83;3.33;;;;;;;23.16;42.47;96890.53;5089506;28;20528;-67
2021/09/24 10:45:13;;;;;;;4.23;3.80;;;;;;;23.42;41.86;96890.16;5092156;28;20408;-68
2021/09/24 10:47:45;;;;;;;4.90;3.20;;;;;;;24.10;40.92;96894.66;5092106;28;20485;-65
2021/09/24 10:50:37;;;;;;;7.90;3.67;;;;;;;24.76;39.43;96886.66;5092329;28;20542;-67
2021/09/24 10:53:21;;;;;;;6.80;4.27;;;;;;;24.66;39.30;96886.50;5092098;28;20420;-67
2021/09/24 10:56:07;;;;;;;3.63;3.33;;;;;;;24.50;39.38;96883.69;5092169;28;20423;-67
2021/09/24 10:58:32;;;;;;;4.90;3.70;;;;;;;24.51;39.24;96881.81;5091429;28;20420;-68
2021/09/24 11:01:11;;;;;;;4.23;3.83;;;;;;;24.76;39.14;96881.28;5094524;28;20445;-67
2021/09/24 11:03:51;;;;;;;12.03;4.00;;;;;;;24.52;38.92;96878.06;5086996;28;20233;-65
2021/09/24 11:06:36;;;;;;;4.17;3.63;;;;;;;25.03;38.04;96879.69;5083522;28;20443;-65
2021/09/24 11:09:03;;;;;;;7.53;3.53;;;;;;;24.54;38.84;96870.59;5089137;28;20439;-66
2021/09/24 11:11:31;;;;;;;5.57;3.87;;;;;;;24.75;38.53;96874.34;5092479;28;20596;-66
2021/09/24 11:14:03;;;;;;;3.97;3.63;;;;;;;24.96;37.97;96869.97;5092199;28;20432;-67
2021/09/24 11:16:49;;;;;;;7.50;3.90;;;;;;;25.18;37.77;96874.47;5088542;28;20463;-66
2021/09/24 11:19:45;;;;;;;5.33;4.23;;;;;;;25.33;37.33;96871.13;5076395;28;20433;-66
2021/09/24 11:22:36;;;;;;;4.17;3.60;;;;;;;24.05;39.20;96871.31;5082333;28;20461;-68
2021/09/24 11:25:01;;;;;;;3.70;3.40;;;;;;;24.61;38.12;96873.09;5084617;28;20420;-65
2021/09/24 11:27:45;;;;;;;4.77;3.40;;;;;;;25.46;36.11;96867.22;5089370;28;20426;-67
2021/09/24 11:30:14;;;;;;;5.37;3.70;;;;;;;24.42;37.95;96867.25;5087932;28;20270;-68
2021/09/24 11:32:45;;;;;;;5.30;3.57;;;;;;;24.78;37.76;96857.75;5083097;28;20839;-67
2021/09/24 11:35:15;;;;;;;4.67;3.47;;;;;;;24.43;37.91;96866.19;5091303;28;20419;-65